Atlanta, Georgia
Traffic Map
Current Weather Conditions
Atlanta, Georgia
Few Clouds
Few Clouds
79°
Feels Like: 80°
Wind Chill: 79° Ceiling: Unl
Heat Index: 80° Visibility: 10mi
Dew Point: 57° Wind: 14mph
Humidity: 47% Direction: 300° (WNW)
Pressure: 29.99in Gusts: 18mph
Raw Report DataKATL 292252Z AUTO 30012G16KT 10SM FEW055 26/14 A2999 RMK AO2 SLP148 T02610139
Traffic Incident Summary
Active as of:
Severity:
Category:
InformationThere was an issue retrieving the traffic information for this location. Please try a different location or try again shortly.
Advertisements
Track Severe Weather on mobile